sensor_id;sensor_type;location;lat;lon;timestamp;P1;durP1;ratioP1;P2;durP2;ratioP2
48403;SDS011;34202;52.536;6.042;2022-11-15T17:19:12;4.90;;;1.40;;
48403;SDS011;34202;52.536;6.042;2022-11-15T17:24:14;4.70;;;1.30;;
48403;SDS011;34202;52.536;6.042;2022-11-15T17:29:14;3.50;;;1.70;;
48403;SDS011;34202;52.536;6.042;2022-11-15T17:34:14;3.10;;;1.50;;
48403;SDS011;34202;52.536;6.042;2022-11-15T17:39:15;3.60;;;1.80;;
48403;SDS011;34202;52.536;6.042;2022-11-15T17:44:15;10.10;;;1.60;;
48403;SDS011;34202;52.536;6.042;2022-11-15T17:49:16;3.10;;;1.80;;
48403;SDS011;34202;52.536;6.042;2022-11-15T17:54:16;4.70;;;1.50;;
48403;SDS011;34202;52.536;6.042;2022-11-15T17:59:16;2.80;;;1.40;;
48403;SDS011;34202;52.536;6.042;2022-11-15T18:04:18;4.80;;;1.30;;
48403;SDS011;34202;52.536;6.042;2022-11-15T18:09:18;2.40;;;1.10;;
48403;SDS011;34202;52.536;6.042;2022-11-15T18:14:20;3.60;;;2.40;;
48403;SDS011;34202;52.536;6.042;2022-11-15T18:19:21;3.60;;;1.50;;
48403;SDS011;34202;52.536;6.042;2022-11-15T18:24:22;1.80;;;1.40;;
48403;SDS011;34202;52.536;6.042;2022-11-15T18:29:23;3.90;;;1.40;;
48403;SDS011;34202;52.536;6.042;2022-11-15T18:34:24;21.50;;;4.00;;
48403;SDS011;34202;52.536;6.042;2022-11-15T18:39:30;2.60;;;1.50;;
48403;SDS011;34202;52.536;6.042;2022-11-15T18:44:31;4.00;;;1.70;;
48403;SDS011;34202;52.536;6.042;2022-11-15T18:49:31;3.70;;;1.50;;
48403;SDS011;34202;52.536;6.042;2022-11-15T18:54:32;7.10;;;1.60;;
48403;SDS011;34202;52.536;6.042;2022-11-15T18:59:32;6.80;;;2.20;;
48403;SDS011;34202;52.536;6.042;2022-11-15T19:04:32;3.20;;;1.90;;
48403;SDS011;34202;52.536;6.042;2022-11-15T19:09:33;4.90;;;2.00;;
48403;SDS011;34202;52.536;6.042;2022-11-15T19:14:34;3.00;;;1.90;;
48403;SDS011;34202;52.536;6.042;2022-11-15T19:19:34;3.50;;;2.30;;
48403;SDS011;34202;52.536;6.042;2022-11-15T19:24:34;3.00;;;1.90;;
48403;SDS011;34202;52.536;6.042;2022-11-15T19:29:35;4.70;;;1.90;;
48403;SDS011;34202;52.536;6.042;2022-11-15T19:34:35;4.10;;;2.50;;
48403;SDS011;34202;52.536;6.042;2022-11-15T19:39:35;6.20;;;2.20;;
48403;SDS011;34202;52.536;6.042;2022-11-15T19:44:36;2.90;;;2.00;;
48403;SDS011;34202;52.536;6.042;2022-11-15T19:49:36;5.40;;;2.00;;
48403;SDS011;34202;52.536;6.042;2022-11-15T19:54:36;4.40;;;2.20;;
48403;SDS011;34202;52.536;6.042;2022-11-15T19:59:37;4.10;;;2.60;;
48403;SDS011;34202;52.536;6.042;2022-11-15T20:04:37;7.30;;;2.90;;
48403;SDS011;34202;52.536;6.042;2022-11-15T20:09:37;5.50;;;3.20;;
48403;SDS011;34202;52.536;6.042;2022-11-15T20:14:38;3.70;;;2.50;;
48403;SDS011;34202;52.536;6.042;2022-11-15T20:19:38;6.70;;;3.40;;
48403;SDS011;34202;52.536;6.042;2022-11-15T20:24:38;4.00;;;3.00;;
48403;SDS011;34202;52.536;6.042;2022-11-15T20:29:39;5.00;;;3.20;;
48403;SDS011;34202;52.536;6.042;2022-11-15T20:34:39;5.30;;;3.30;;
48403;SDS011;34202;52.536;6.042;2022-11-15T20:39:39;4.20;;;3.40;;
48403;SDS011;34202;52.536;6.042;2022-11-15T20:44:40;4.60;;;3.50;;
48403;SDS011;34202;52.536;6.042;2022-11-15T20:49:40;4.80;;;3.80;;
48403;SDS011;34202;52.536;6.042;2022-11-15T20:54:40;4.30;;;3.40;;
48403;SDS011;34202;52.536;6.042;2022-11-15T20:59:41;5.80;;;4.00;;
48403;SDS011;34202;52.536;6.042;2022-11-15T21:04:41;5.30;;;3.20;;
48403;SDS011;34202;52.536;6.042;2022-11-15T21:09:41;6.50;;;3.60;;
48403;SDS011;34202;52.536;6.042;2022-11-15T21:15:00;4.20;;;3.60;;
48403;SDS011;34202;52.536;6.042;2022-11-15T21:20:01;6.80;;;3.80;;
48403;SDS011;34202;52.536;6.042;2022-11-15T21:25:01;6.30;;;3.70;;
48403;SDS011;34202;52.536;6.042;2022-11-15T21:30:02;3.30;;;3.00;;
48403;SDS011;34202;52.536;6.042;2022-11-15T21:35:02;4.60;;;3.30;;
48403;SDS011;34202;52.536;6.042;2022-11-15T21:40:03;4.50;;;3.80;;
48403;SDS011;34202;52.536;6.042;2022-11-15T21:45:04;5.80;;;4.40;;
48403;SDS011;34202;52.536;6.042;2022-11-15T21:50:05;5.60;;;4.00;;
48403;SDS011;34202;52.536;6.042;2022-11-15T21:55:05;5.80;;;3.90;;
48403;SDS011;34202;52.536;6.042;2022-11-15T22:00:06;6.50;;;4.20;;
48403;SDS011;34202;52.536;6.042;2022-11-15T22:05:25;5.70;;;4.20;;
48403;SDS011;34202;52.536;6.042;2022-11-15T22:10:26;7.00;;;4.50;;
48403;SDS011;34202;52.536;6.042;2022-11-15T22:15:26;6.50;;;5.00;;
48403;SDS011;34202;52.536;6.042;2022-11-15T22:20:26;7.60;;;5.00;;
48403;SDS011;34202;52.536;6.042;2022-11-15T22:25:29;6.60;;;4.70;;
48403;SDS011;34202;52.536;6.042;2022-11-15T22:30:29;6.60;;;4.80;;
48403;SDS011;34202;52.536;6.042;2022-11-15T22:35:30;6.20;;;4.90;;
48403;SDS011;34202;52.536;6.042;2022-11-15T22:40:30;6.30;;;5.50;;
48403;SDS011;34202;52.536;6.042;2022-11-15T22:45:30;7.60;;;5.90;;
48403;SDS011;34202;52.536;6.042;2022-11-15T22:50:31;6.30;;;5.70;;
48403;SDS011;34202;52.536;6.042;2022-11-15T22:55:32;8.80;;;7.90;;
48403;SDS011;34202;52.536;6.042;2022-11-15T23:00:32;7.10;;;6.20;;
48403;SDS011;34202;52.536;6.042;2022-11-15T23:05:33;8.70;;;6.30;;
48403;SDS011;34202;52.536;6.042;2022-11-15T23:10:37;7.60;;;6.90;;
48403;SDS011;34202;52.536;6.042;2022-11-15T23:16:01;9.30;;;7.00;;
48403;SDS011;34202;52.536;6.042;2022-11-15T23:26:43;8.90;;;7.10;;
48403;SDS011;34202;52.536;6.042;2022-11-15T23:31:45;7.90;;;7.10;;
48403;SDS011;34202;52.536;6.042;2022-11-15T23:37:04;8.70;;;7.10;;
48403;SDS011;34202;52.536;6.042;2022-11-15T23:42:05;9.30;;;8.30;;
48403;SDS011;34202;52.536;6.042;2022-11-15T23:47:06;8.10;;;7.10;;
48403;SDS011;34202;52.536;6.042;2022-11-15T23:52:06;7.50;;;6.80;;
48403;SDS011;34202;52.536;6.042;2022-11-15T23:57:06;8.60;;;7.80;;
